Time;durP1;ratioP1;P1;durP2;ratioP2;P2;SDS_P1;SDS_P2;PMS_P1;PMS_P2;Temp;Humidity;BMP_temperature;BMP_pressure;BME280_temperature;BME280_humidity;BME280_pressure;Samples;Min_cycle;Max_cycle;Signal;HPM_P1;HPM_P2
2023/06/13 00:00:16;;;;;;;6.30;5.60;;;;;;;21.04;47.25;101347.06;10377590;28;20037;-72
2023/06/13 00:05:18;;;;;;;6.43;4.80;;;;;;;20.92;47.27;101362.88;10377554;28;20090;-70
2023/06/13 00:10:18;;;;;;;7.38;6.72;;;;;;;20.77;47.28;101362.66;10377667;28;20030;-73
2023/06/13 00:15:18;;;;;;;4.80;4.30;;;;;;;20.61;48.33;101368.00;10377317;28;20034;-70
2023/06/13 00:20:19;;;;;;;15.60;5.15;;;;;;;20.46;48.33;101359.47;10376836;28;20181;-70
2023/06/13 00:25:19;;;;;;;5.45;4.82;;;;;;;20.40;48.74;101352.22;10375486;28;20044;-71
2023/06/13 00:30:20;;;;;;;6.10;5.40;;;;;;;20.36;47.73;101351.91;10374573;28;20124;-70
2023/06/13 00:35:21;;;;;;;8.00;4.47;;;;;;;20.26;48.09;101349.00;10375481;28;20359;-71
2023/06/13 00:40:21;;;;;;;5.20;4.45;;;;;;;20.18;47.67;101347.47;10374916;28;20026;-70
2023/06/13 00:45:23;;;;;;;5.20;4.38;;;;;;;20.12;47.67;101351.22;10377008;28;20042;-70
2023/06/13 00:50:30;;;;;;;4.70;4.30;;;;;;;20.10;47.35;101350.66;10376413;28;20045;-71
2023/06/13 00:55:31;;;;;;;3.88;3.60;;;;;;;20.03;46.88;101336.22;10377593;28;20034;-70
2023/06/13 01:00:33;;;;;;;8.82;4.13;;;;;;;20.07;46.70;101339.31;10374341;28;20465;-69
2023/06/13 01:05:34;;;;;;;4.75;4.30;;;;;;;20.09;45.98;101342.66;10374832;28;20046;-71
2023/06/13 01:10:34;;;;;;;5.60;4.60;;;;;;;20.07;45.86;101331.91;10362144;28;20034;-70
2023/06/13 01:15:36;;;;;;;6.20;4.75;;;;;;;20.05;45.28;101338.75;10357738;28;20040;-71
2023/06/13 01:20:37;;;;;;;4.35;4.00;;;;;;;19.97;45.03;101323.47;10356759;28;20034;-71
2023/06/13 01:26:21;;;;;;;16.00;4.50;;;;;;;19.87;45.53;101337.06;10356549;28;20033;-72
2023/06/13 01:31:23;;;;;;;4.25;3.67;;;;;;;19.74;45.72;101339.03;10382845;28;20061;-71
2023/06/13 01:36:23;;;;;;;7.90;4.25;;;;;;;19.63;45.95;101345.41;10368466;28;20088;-71
2023/06/13 01:41:24;;;;;;;5.97;3.95;;;;;;;19.48;46.18;101339.63;10373106;28;20062;-71
2023/06/13 01:46:26;;;;;;;13.60;3.97;;;;;;;19.41;46.08;101331.56;10374589;28;20112;-70
2023/06/13 01:51:36;;;;;;;4.55;4.13;;;;;;;19.29;46.00;101331.59;10373696;28;20077;-71
2023/06/13 01:56:36;;;;;;;5.50;4.28;;;;;;;19.18;46.41;101332.50;10372885;28;20353;-70
2023/06/13 02:01:38;;;;;;;5.90;4.13;;;;;;;19.07;46.58;101336.09;10370817;28;20113;-70
2023/06/13 02:06:38;;;;;;;15.80;3.97;;;;;;;18.94;46.08;101328.97;10355067;28;20433;-72
2023/06/13 02:11:39;;;;;;;7.97;4.15;;;;;;;18.87;47.09;101333.75;10372811;28;20061;-70
2023/06/13 02:16:39;;;;;;;6.55;3.85;;;;;;;18.83;47.17;101329.03;10370043;28;20092;-70
2023/06/13 02:21:44;;;;;;;7.43;3.88;;;;;;;18.68;46.50;101324.81;10373480;28;20029;-70
2023/06/13 02:26:45;;;;;;;5.05;3.72;;;;;;;18.58;47.37;101335.56;10370764;28;20374;-71
2023/06/13 02:31:46;;;;;;;4.82;3.95;;;;;;;18.45;47.67;101336.66;10370227;28;20145;-70
2023/06/13 02:36:46;;;;;;;6.80;4.25;;;;;;;18.39;47.99;101323.91;10371327;28;20148;-71
2023/06/13 02:41:46;;;;;;;8.35;4.75;;;;;;;18.31;47.69;101333.34;10377244;28;20045;-72
2023/06/13 02:46:47;;;;;;;5.53;4.18;;;;;;;18.16;49.17;101343.09;10371695;28;20034;-70
2023/06/13 02:51:47;;;;;;;5.05;4.10;;;;;;;18.10;49.14;101339.41;10369638;28;20052;-71
2023/06/13 02:56:47;;;;;;;5.47;4.45;;;;;;;18.03;49.22;101344.16;10371481;28;20120;-70
2023/06/13 03:01:48;;;;;;;13.32;4.60;;;;;;;17.96;49.46;101335.19;10370744;28;20352;-72
2023/06/13 03:06:49;;;;;;;4.75;4.18;;;;;;;17.89;51.11;101338.03;10370097;28;20045;-71
2023/06/13 03:11:50;;;;;;;4.10;3.70;;;;;;;17.82;51.54;101346.38;10369642;28;20084;-70
2023/06/13 03:16:52;;;;;;;6.47;4.93;;;;;;;17.77;51.51;101353.63;10369261;28;20038;-71
2023/06/13 03:21:52;;;;;;;16.85;4.85;;;;;;;17.64;52.12;101344.53;10353570;28;20037;-70
2023/06/13 03:26:53;;;;;;;6.55;4.22;;;;;;;17.60;53.10;101348.78;10369528;28;20045;-71
2023/06/13 03:31:54;;;;;;;7.35;4.97;;;;;;;17.52;53.18;101345.56;10371007;28;20494;-71
2023/06/13 03:36:54;;;;;;;5.22;3.83;;;;;;;17.43;54.88;101340.38;10370203;28;20120;-70
2023/06/13 03:41:55;;;;;;;7.82;5.07;;;;;;;17.44;54.46;101338.47;10368457;28;20030;-72
2023/06/13 03:46:55;;;;;;;14.80;5.13;;;;;;;17.39;54.99;101343.84;10370134;28;20069;-71
2023/06/13 03:51:56;;;;;;;6.10;4.40;;;;;;;17.35;54.92;101345.34;10368764;28;20412;-71
2023/06/13 03:56:56;;;;;;;5.35;4.85;;;;;;;17.32;54.82;101346.63;10370172;28;20030;-71
2023/06/13 04:01:57;;;;;;;6.60;4.45;;;;;;;17.26;55.00;101336.66;10369841;28;20039;-71
2023/06/13 04:06:58;;;;;;;4.88;4.45;;;;;;;17.26;55.64;101346.72;10374961;28;20042;-70
2023/06/13 04:11:58;;;;;;;11.10;4.70;;;;;;;17.27;54.58;101341.03;10382943;28;20105;-70
2023/06/13 04:17:02;;;;;;;7.65;4.40;;;;;;;17.35;54.44;101346.19;10358563;28;20312;-70
2023/06/13 04:22:05;;;;;;;6.80;4.60;;;;;;;17.34;52.48;101343.69;10376169;28;20391;-71
2023/06/13 04:27:08;;;;;;;6.47;4.80;;;;;;;17.42;52.67;101357.91;10376377;28;20029;-71
2023/06/13 04:32:13;;;;;;;5.70;3.85;;;;;;;17.49;52.54;101363.28;10377849;28;20061;-70
2023/06/13 04:37:23;;;;;;;5.00;4.15;;;;;;;17.72;53.84;101365.25;10375655;28;20042;-72
2023/06/13 04:42:29;;;;;;;5.72;5.20;;;;;;;18.92;53.08;101363.22;10376618;28;20066;-71
2023/06/13 04:47:30;;;;;;;4.53;4.10;;;;;;;19.78;50.43;101364.13;10375610;28;20035;-71
2023/06/13 04:52:32;;;;;;;13.57;4.80;;;;;;;20.29;49.64;101353.97;10358205;28;20129;-73
2023/06/13 04:57:33;;;;;;;9.18;4.50;;;;;;;20.71;48.67;101374.69;10304181;28;20054;-71
2023/06/13 05:02:35;;;;;;;6.10;4.60;;;;;;;21.09;47.52;101374.69;10376679;28;20034;-71
2023/06/13 05:07:35;;;;;;;11.30;4.53;;;;;;;21.41;47.00;101382.25;10376583;28;20038;-71
2023/06/13 05:12:36;;;;;;;7.65;5.28;;;;;;;21.67;46.12;101371.50;10390305;28;20026;-72
2023/06/13 05:17:37;;;;;;;5.78;4.30;;;;;;;21.95;45.84;101382.25;10375321;28;20049;-71
2023/06/13 05:22:39;;;;;;;10.88;5.32;;;;;;;22.29;44.86;101393.03;10372576;28;20416;-70
2023/06/13 05:27:39;;;;;;;12.73;5.82;;;;;;;22.49;44.44;101400.63;10372080;28;20033;-71
2023/06/13 05:32:41;;;;;;;8.45;6.00;;;;;;;22.77;44.02;101398.63;10371692;28;20437;-71
2023/06/13 05:37:43;;;;;;;7.22;4.90;;;;;;;23.19;43.42;101401.34;10372330;28;20079;-69
2023/06/13 05:42:44;;;;;;;4.60;4.28;;;;;;;23.46;43.02;101403.13;10376796;28;20088;-70
2023/06/13 05:47:44;;;;;;;6.38;5.60;;;;;;;23.75;42.58;101404.31;10356616;28;20065;-70
2023/06/13 05:52:45;;;;;;;10.30;5.00;;;;;;;24.20;41.75;101416.53;10388988;28;20065;-69
2023/06/13 05:57:45;;;;;;;6.03;5.53;;;;;;;24.59;40.87;101405.75;10372727;28;20112;-70
2023/06/13 06:02:46;;;;;;;5.75;4.57;;;;;;;24.73;40.74;101413.47;10373484;28;20034;-70
2023/06/13 06:07:46;;;;;;;8.30;6.45;;;;;;;24.98;40.05;101412.56;10388178;28;20049;-72
2023/06/13 06:12:47;;;;;;;5.93;4.90;;;;;;;25.55;40.09;101408.47;10371211;28;20041;-70
2023/06/13 06:17:47;;;;;;;5.22;4.70;;;;;;;25.87;39.13;101418.31;10370982;28;20037;-71
2023/06/13 06:22:48;;;;;;;7.30;5.32;;;;;;;26.12;38.37;101412.56;10372285;28;20474;-69
2023/06/13 06:27:51;;;;;;;5.60;5.03;;;;;;;26.13;37.06;101417.03;10371356;28;20033;-70
2023/06/13 06:32:51;;;;;;;7.60;5.82;;;;;;;26.39;37.09;101414.03;10369794;28;20066;-71
2023/06/13 06:37:52;;;;;;;5.72;5.20;;;;;;;26.85;36.53;101422.75;10370478;28;20044;-68
2023/06/13 06:42:52;;;;;;;6.35;5.72;;;;;;;27.10;36.16;101424.41;10372180;28;20410;-70
2023/06/13 06:47:53;;;;;;;10.77;5.57;;;;;;;27.26;35.64;101421.47;10371433;28;20109;-69
2023/06/13 06:52:53;;;;;;;4.88;4.13;;;;;;;27.55;35.44;101411.06;10371465;28;20182;-70
2023/06/13 06:57:53;;;;;;;10.25;5.97;;;;;;;27.42;34.93;101411.81;10370400;28;20038;-69
2023/06/13 07:02:54;;;;;;;6.65;5.03;;;;;;;27.70;35.76;101409.22;10369585;28;20126;-70
2023/06/13 07:07:55;;;;;;;14.35;4.10;;;;;;;28.16;34.74;101408.50;10370700;28;20041;-70
2023/06/13 07:12:55;;;;;;;4.93;4.53;;;;;;;28.91;33.87;101413.88;10370350;28;20381;-69
2023/06/13 07:17:56;;;;;;;5.70;4.70;;;;;;;28.78;32.67;101414.69;10391245;28;20393;-71
2023/06/13 07:22:57;;;;;;;5.38;4.80;;;;;;;29.25;32.43;101415.41;10373763;28;20034;-70
2023/06/13 07:27:57;;;;;;;4.20;3.90;;;;;;;29.19;30.83;101417.47;10386590;28;20041;-71
2023/06/13 07:32:57;;;;;;;8.93;5.95;;;;;;;29.37;31.87;101412.94;10369361;28;20065;-68
2023/06/13 07:37:58;;;;;;;6.55;5.40;;;;;;;29.99;31.87;101429.13;10368920;28;20501;-70
2023/06/13 07:42:58;;;;;;;5.68;4.18;;;;;;;30.29;30.33;101423.97;10377570;28;20038;-69
2023/06/13 07:47:59;;;;;;;4.13;3.73;;;;;;;30.12;29.16;101425.47;10376625;28;20378;-69
2023/06/13 07:53:00;;;;;;;5.22;4.45;;;;;;;29.92;29.10;101414.78;10377082;28;20297;-70
2023/06/13 07:58:00;;;;;;;4.10;3.78;;;;;;;30.13;28.81;101417.91;10375805;28;20042;-70
2023/06/13 08:03:00;;;;;;;5.00;4.63;;;;;;;29.98;28.15;101409.91;10377111;28;20080;-68
2023/06/13 08:08:01;;;;;;;5.82;4.72;;;;;;;30.01;28.22;101412.88;10377592;28;20117;-69
2023/06/13 08:13:01;;;;;;;3.83;3.53;;;;;;;30.45;27.84;101416.03;10392469;28;20037;-69
2023/06/13 08:18:02;;;;;;;4.63;4.30;;;;;;;30.27;28.06;101401.94;10375925;28;20444;-69
2023/06/13 08:23:02;;;;;;;4.90;4.35;;;;;;;30.24;27.02;101416.53;10376064;28;20034;-70
2023/06/13 08:28:06;;;;;;;4.78;4.38;;;;;;;30.45;27.85;101410.44;10376688;28;20127;-70
2023/06/13 08:33:08;;;;;;;3.60;3.40;;;;;;;30.62;26.60;101410.50;10373878;28;20061;-70
2023/06/13 08:38:09;;;;;;;4.40;3.85;;;;;;;30.93;26.20;101418.09;10375277;28;20133;-71
2023/06/13 08:43:10;;;;;;;4.95;4.18;;;;;;;30.78;25.73;101408.97;10375015;28;20525;-69
2023/06/13 08:48:10;;;;;;;4.50;4.20;;;;;;;30.92;26.09;101402.44;10373293;28;20026;-70
2023/06/13 08:53:12;;;;;;;3.92;3.70;;;;;;;31.08;25.42;101409.28;10388768;28;20037;-72
2023/06/13 08:58:12;;;;;;;5.50;5.03;;;;;;;31.06;25.95;101391.97;10357576;28;20113;-70
2023/06/13 09:03:14;;;;;;;8.65;4.55;;;;;;;31.31;25.67;101376.41;10356452;28;20433;-69
2023/06/13 09:08:14;;;;;;;7.57;4.63;;;;;;;31.01;25.52;101366.94;10374138;28;20116;-70
2023/06/13 09:13:15;;;;;;;7.00;4.97;;;;;;;30.87;26.86;101372.66;10357085;28;20510;-70
2023/06/13 09:18:16;;;;;;;5.75;5.03;;;;;;;31.53;26.53;101369.88;10356024;28;20026;-72
2023/06/13 09:23:16;;;;;;;4.95;4.53;;;;;;;31.83;25.60;101370.84;10372084;28;20030;-69
2023/06/13 09:28:28;;;;;;;8.20;5.10;;;;;;;31.90;23.67;101373.19;10372613;28;20516;-72
2023/06/13 09:33:28;;;;;;;5.28;4.88;;;;;;;31.60;23.46;101389.81;10370856;28;20099;-72
2023/06/13 09:38:29;;;;;;;4.43;4.03;;;;;;;31.52;24.12;101370.19;10372640;28;20477;-70
2023/06/13 09:43:30;;;;;;;7.85;4.80;;;;;;;31.48;23.34;101368.06;10372295;28;20123;-69
2023/06/13 09:48:30;;;;;;;5.18;4.68;;;;;;;31.22;23.73;101365.19;10371709;28;20030;-72
2023/06/13 09:53:31;;;;;;;5.20;4.80;;;;;;;30.80;23.22;101361.13;10354844;28;20120;-71
2023/06/13 09:58:31;;;;;;;5.47;4.70;;;;;;;30.99;23.38;101360.88;10371172;28;20103;-71
2023/06/13 10:03:32;;;;;;;4.90;4.32;;;;;;;31.10;23.17;101358.59;10353962;28;20501;-72
2023/06/13 10:08:34;;;;;;;9.57;4.93;;;;;;;31.04;23.63;101355.09;10372423;28;20037;-70
2023/06/13 10:13:40;;;;;;;5.63;5.07;;;;;;;31.21;23.42;101368.31;10371457;28;20075;-70
2023/06/13 10:18:41;;;;;;;5.75;5.28;;;;;;;31.36;23.29;101341.88;10355019;28;20154;-70
2023/06/13 10:23:46;;;;;;;11.05;5.05;;;;;;;31.48;22.84;101348.47;10353906;28;20121;-73
2023/06/13 10:29:01;;;;;;;20.00;4.50;;;;;;;31.86;22.76;101345.00;10370908;28;20458;-72
2023/06/13 10:34:34;;;;;;;5.15;4.35;;;;;;;31.51;22.39;101341.38;10371028;28;20046;-70
2023/06/13 10:40:17;;;;;;;8.73;6.43;;;;;;;31.47;22.32;101344.03;10370824;28;20091;-72
2023/06/13 10:45:21;;;;;;;7.85;4.40;;;;;;;31.46;22.55;101328.38;10369688;28;20053;-70
2023/06/13 10:50:21;;;;;;;4.60;4.20;;;;;;;31.65;22.91;101336.47;10369429;28;20029;-71
2023/06/13 10:55:23;;;;;;;10.23;5.07;;;;;;;31.94;22.36;101320.94;10369343;28;20080;-71
2023/06/13 11:00:27;;;;;;;6.20;5.28;;;;;;;31.56;22.54;101327.22;10370418;28;20025;-70
2023/06/13 11:05:27;;;;;;;6.30;4.72;;;;;;;31.88;22.26;101339.91;10370785;28;20458;-70
2023/06/13 11:10:29;;;;;;;6.45;5.40;;;;;;;31.72;22.15;101302.34;10370390;28;20034;-72
2023/06/13 11:15:30;;;;;;;7.95;4.03;;;;;;;31.63;22.32;101327.56;10376586;28;20551;-71
2023/06/13 11:20:31;;;;;;;8.75;4.85;;;;;;;31.91;22.13;101321.63;10377547;28;20065;-70
2023/06/13 11:25:32;;;;;;;4.90;4.50;;;;;;;31.91;22.33;101316.03;10377060;28;20026;-71
2023/06/13 11:30:33;;;;;;;6.40;5.80;;;;;;;32.26;22.22;101311.16;10378120;28;20393;-71
2023/06/13 11:35:33;;;;;;;8.30;5.60;;;;;;;32.18;21.79;101320.41;10377036;28;20053;-71
2023/06/13 11:40:39;;;;;;;5.05;4.45;;;;;;;32.57;22.47;101322.09;10359782;28;20025;-71
2023/06/13 11:45:40;;;;;;;6.10;5.13;;;;;;;32.64;21.50;101301.94;10378017;28;20096;-71
2023/06/13 11:50:40;;;;;;;5.40;4.82;;;;;;;32.97;21.81;101302.13;10378292;28;20111;-71
2023/06/13 11:55:41;;;;;;;4.85;4.45;;;;;;;32.79;21.51;101297.75;10377385;28;20037;-71
2023/06/13 12:00:48;;;;;;;6.85;5.38;;;;;;;32.93;22.22;101303.94;10376626;28;20105;-71
2023/06/13 12:05:50;;;;;;;23.42;5.50;;;;;;;32.71;22.17;101310.66;10378704;28;20098;-71
2023/06/13 12:10:51;;;;;;;5.28;4.78;;;;;;;32.67;22.09;101304.06;10375206;28;20375;-71
2023/06/13 12:15:51;;;;;;;5.47;4.97;;;;;;;32.79;21.83;101292.13;10376214;28;20145;-71
2023/06/13 12:20:53;;;;;;;4.97;4.57;;;;;;;32.76;22.41;101293.63;10374748;28;20334;-71
2023/06/13 12:25:54;;;;;;;5.38;5.07;;;;;;;33.12;21.74;101289.47;10375495;28;20041;-73
2023/06/13 12:30:57;;;;;;;5.50;5.00;;;;;;;32.99;22.46;101280.13;10358232;28;20049;-71
2023/06/13 12:35:57;;;;;;;4.90;4.50;;;;;;;32.91;22.40;101285.81;10376007;28;20033;-73
2023/06/13 12:40:58;;;;;;;6.72;5.03;;;;;;;32.80;21.94;101294.63;10375608;28;20465;-70
2023/06/13 12:45:59;;;;;;;6.80;4.10;;;;;;;32.52;22.37;101283.06;10357952;28;20116;-71
2023/06/13 12:50:59;;;;;;;6.03;4.85;;;;;;;32.82;22.33;101280.25;10374349;28;20064;-71
2023/06/13 12:56:01;;;;;;;5.85;5.10;;;;;;;32.56;21.47;101286.81;10374597;28;20052;-71
2023/06/13 13:01:05;;;;;;;5.65;4.53;;;;;;;32.55;21.50;101284.38;10373354;28;20354;-70
2023/06/13 13:06:05;;;;;;;9.50;4.72;;;;;;;32.99;22.10;101277.34;10357413;28;20041;-71
2023/06/13 13:11:07;;;;;;;4.63;4.22;;;;;;;33.32;22.28;101276.63;10373243;28;20041;-71
2023/06/13 13:16:07;;;;;;;10.95;4.60;;;;;;;33.05;21.46;101266.75;10375384;28;20042;-71
2023/06/13 13:21:07;;;;;;;6.00;4.40;;;;;;;32.83;21.96;101270.66;10374581;28;20112;-70
2023/06/13 13:26:08;;;;;;;5.82;4.85;;;;;;;32.41;22.39;101278.94;10373472;28;20398;-71
2023/06/13 13:31:08;;;;;;;5.70;3.70;;;;;;;32.35;22.24;101252.25;10372016;28;20053;-72
2023/06/13 13:36:09;;;;;;;6.13;4.70;;;;;;;32.87;22.99;101257.63;10356310;28;20069;-69
2023/06/13 13:41:09;;;;;;;7.43;4.45;;;;;;;33.27;23.30;101257.16;10373889;28;20041;-72
2023/06/13 13:46:09;;;;;;;6.57;5.00;;;;;;;32.80;23.87;101243.28;10371746;28;20054;-71
2023/06/13 13:51:11;;;;;;;7.47;4.57;;;;;;;32.57;24.48;101254.81;10372302;28;20080;-70
2023/06/13 13:56:12;;;;;;;5.97;4.88;;;;;;;32.60;24.89;101256.94;10374743;28;20268;-71
2023/06/13 14:01:12;;;;;;;5.83;3.80;;;;;;;32.16;24.94;101256.31;10373275;28;20404;-71
2023/06/13 14:06:13;;;;;;;4.25;3.53;;;;;;;31.85;25.45;101241.72;10389087;28;20290;-74
2023/06/13 14:11:14;;;;;;;6.70;4.85;;;;;;;31.87;26.00;101258.97;10372154;28;20456;-71
2023/06/13 14:16:14;;;;;;;5.50;5.03;;;;;;;32.17;25.19;101249.53;10372422;28;20040;-73
2023/06/13 14:21:15;;;;;;;5.40;5.00;;;;;;;31.72;25.82;101249.16;10354549;28;20096;-73
2023/06/13 14:26:15;;;;;;;5.38;4.88;;;;;;;31.64;25.22;101249.97;10372328;28;20040;-72
2023/06/13 14:31:16;;;;;;;5.88;5.35;;;;;;;31.45;26.63;101241.94;10370535;28;20132;-70
2023/06/13 14:36:16;;;;;;;4.57;4.18;;;;;;;31.43;25.30;101249.81;10371539;28;20133;-71
2023/06/13 14:41:17;;;;;;;4.47;4.18;;;;;;;31.64;25.35;101244.38;10371523;28;20148;-73
2023/06/13 14:46:17;;;;;;;5.13;4.72;;;;;;;31.42;25.12;101246.22;10370756;28;20468;-71
2023/06/13 14:51:17;;;;;;;4.65;4.22;;;;;;;31.23;25.59;101246.50;10371551;28;20037;-70
2023/06/13 14:56:18;;;;;;;8.07;5.00;;;;;;;30.46;25.80;101236.00;10369487;28;20066;-72
2023/06/13 15:01:19;;;;;;;4.97;4.33;;;;;;;30.32;26.18;101231.38;10387192;28;20037;-72
2023/06/13 15:06:20;;;;;;;6.78;5.30;;;;;;;30.23;25.68;101241.69;10372451;28;20379;-73
2023/06/13 15:11:21;;;;;;;3.72;3.50;;;;;;;30.15;26.37;101220.06;10371933;28;20108;-70
2023/06/13 15:16:21;;;;;;;6.28;5.65;;;;;;;30.26;25.94;101223.47;10369289;28;20030;-70
2023/06/13 15:21:22;;;;;;;5.35;4.95;;;;;;;29.93;25.91;101229.38;10370207;28;20030;-72
2023/06/13 15:26:23;;;;;;;5.30;4.90;;;;;;;29.90;26.38;101238.38;10371020;28;20121;-71
2023/06/13 15:31:23;;;;;;;5.63;5.07;;;;;;;29.94;26.88;101238.56;10369025;28;20140;-71
2023/06/13 15:36:23;;;;;;;7.00;5.28;;;;;;;29.81;26.98;101235.53;10368936;28;20065;-71
2023/06/13 15:41:24;;;;;;;4.93;4.40;;;;;;;29.91;26.36;101226.06;10371029;28;20040;-72
2023/06/13 15:46:25;;;;;;;11.30;5.78;;;;;;;29.81;26.41;101220.75;10370122;28;20607;-71
2023/06/13 15:51:26;;;;;;;5.43;4.15;;;;;;;29.59;27.18;101222.41;10369033;28;20034;-72
2023/06/13 15:56:27;;;;;;;6.57;5.97;;;;;;;29.45;28.01;101227.19;10369413;28;20084;-72
2023/06/13 16:01:27;;;;;;;7.75;4.90;;;;;;;29.31;27.81;101230.06;10389862;28;20104;-71
2023/06/13 16:06:28;;;;;;;15.70;6.32;;;;;;;29.25;27.72;101213.78;10377259;28;20117;-71
2023/06/13 16:11:28;;;;;;;4.60;4.13;;;;;;;29.14;27.65;101227.16;10391592;28;20446;-71
2023/06/13 16:16:29;;;;;;;6.00;4.78;;;;;;;28.88;26.90;101219.34;10375851;28;20050;-71
2023/06/13 16:21:29;;;;;;;5.45;5.05;;;;;;;28.42;27.99;101220.31;10377260;28;20061;-71
2023/06/13 16:26:30;;;;;;;6.65;4.80;;;;;;;27.85;28.36;101221.69;10375996;28;20042;-73
2023/06/13 16:31:30;;;;;;;5.65;4.93;;;;;;;27.41;29.04;101215.47;10377847;28;20053;-71
2023/06/13 16:36:31;;;;;;;5.03;4.63;;;;;;;27.27;28.81;101226.50;10376665;28;20077;-71
2023/06/13 16:41:31;;;;;;;5.10;4.72;;;;;;;26.95;30.22;101216.13;10375755;28;20057;-70
2023/06/13 16:46:32;;;;;;;10.32;4.18;;;;;;;26.73;31.87;101232.56;10374788;28;20180;-71
2023/06/13 16:51:33;;;;;;;5.05;4.10;;;;;;;26.49;33.01;101229.84;10391721;28;20038;-70
2023/06/13 16:56:33;;;;;;;20.33;4.40;;;;;;;26.42;32.96;101232.94;10376154;28;20042;-71
2023/06/13 17:01:34;;;;;;;6.50;4.40;;;;;;;26.28;32.93;101232.81;10376612;28;20092;-71
2023/06/13 17:06:34;;;;;;;4.30;3.95;;;;;;;26.08;33.46;101231.09;10374338;28;20102;-71
2023/06/13 17:11:35;;;;;;;4.43;3.90;;;;;;;26.06;33.58;101238.88;10373707;28;20076;-70
2023/06/13 17:16:36;;;;;;;24.52;3.65;;;;;;;25.86;34.47;101231.59;10390765;28;20037;-71
2023/06/13 17:21:37;;;;;;;4.25;3.95;;;;;;;25.83;33.58;101243.25;10374752;28;20034;-71
2023/06/13 17:26:38;;;;;;;5.45;3.58;;;;;;;25.71;33.86;101249.16;10372608;28;20042;-71
2023/06/13 17:31:38;;;;;;;6.45;3.85;;;;;;;25.65;35.22;101246.72;10372817;28;20406;-71
2023/06/13 17:36:39;;;;;;;3.72;3.17;;;;;;;25.59;35.47;101245.09;10373904;28;20106;-71
2023/06/13 17:41:39;;;;;;;3.50;3.20;;;;;;;25.44;37.81;101246.06;10373158;28;20064;-71
2023/06/13 17:46:40;;;;;;;8.80;4.30;;;;;;;25.29;37.39;101239.50;10373190;28;20148;-71
2023/06/13 17:51:40;;;;;;;3.60;3.22;;;;;;;25.36;37.03;101244.72;10372777;28;20054;-72
2023/06/13 17:56:41;;;;;;;6.47;4.13;;;;;;;25.20;39.00;101251.50;10372566;28;20038;-71
2023/06/13 18:01:41;;;;;;;4.43;3.33;;;;;;;25.05;39.10;101260.72;10372616;28;20128;-71
2023/06/13 18:06:42;;;;;;;6.93;3.20;;;;;;;24.96;39.15;101252.16;10370599;28;20056;-71
2023/06/13 18:11:42;;;;;;;3.80;3.53;;;;;;;24.97;37.88;101255.75;10372039;28;20042;-72
2023/06/13 18:16:43;;;;;;;11.98;3.08;;;;;;;24.81;40.23;101253.06;10372193;28;20125;-71
2023/06/13 18:21:44;;;;;;;4.10;3.03;;;;;;;24.73;40.34;101258.38;10371798;28;20068;-71
2023/06/13 18:26:44;;;;;;;20.63;4.55;;;;;;;24.56;41.95;101258.72;10370582;28;20045;-72
2023/06/13 18:31:45;;;;;;;8.82;3.38;;;;;;;24.33;44.37;101254.63;10337450;28;20119;-71
2023/06/13 18:36:45;;;;;;;3.60;3.28;;;;;;;24.09;45.47;101260.78;10370858;28;20060;-71
2023/06/13 18:41:47;;;;;;;5.97;3.58;;;;;;;24.06;44.26;101266.84;10371335;28;20484;-77
2023/06/13 18:46:48;;;;;;;8.77;3.20;;;;;;;24.03;44.50;101266.59;10370845;28;20041;-76
2023/06/13 18:51:50;;;;;;;2.63;2.35;;;;;;;23.92;44.98;101271.28;10370366;28;20450;-76
2023/06/13 18:56:50;;;;;;;16.38;2.90;;;;;;;23.74;47.37;101274.59;10370143;28;20034;-76
2023/06/13 19:01:51;;;;;;;3.10;2.83;;;;;;;23.61;47.42;101267.66;10370510;28;20088;-77
2023/06/13 19:06:53;;;;;;;4.78;3.03;;;;;;;23.44;47.42;101279.00;10354110;28;20169;-76
2023/06/13 19:11:53;;;;;;;5.88;3.20;;;;;;;23.25;49.76;101277.84;10387824;28;20168;-76
2023/06/13 19:16:54;;;;;;;5.78;2.90;;;;;;;23.06;50.80;101277.53;10370517;28;20042;-75
2023/06/13 19:21:54;;;;;;;5.78;3.33;;;;;;;22.91;51.35;101290.19;10371788;28;20562;-77
2023/06/13 19:26:55;;;;;;;3.22;2.92;;;;;;;22.83;49.48;101304.50;10373390;28;20055;-74
2023/06/13 19:31:55;;;;;;;8.38;3.22;;;;;;;22.56;53.02;101299.13;10373120;28;20404;-75
2023/06/13 19:36:55;;;;;;;7.95;3.08;;;;;;;22.45;51.70;101311.19;10375051;28;20080;-73
2023/06/13 19:41:56;;;;;;;5.10;3.60;;;;;;;22.37;51.77;101317.25;10360301;28;20123;-74
2023/06/13 19:46:56;;;;;;;3.78;3.22;;;;;;;22.20;53.19;101311.88;10361278;28;20036;-75
2023/06/13 19:51:58;;;;;;;7.85;3.05;;;;;;;22.10;53.30;101326.38;10376322;28;20030;-74
2023/06/13 19:56:58;;;;;;;3.47;3.17;;;;;;;21.96;53.82;101331.53;10377988;28;20120;-77
2023/06/13 20:01:59;;;;;;;8.75;3.00;;;;;;;21.91;51.64;101339.75;10377496;28;20048;-77
2023/06/13 20:07:00;;;;;;;4.30;2.70;;;;;;;21.73;53.05;101335.47;10378385;28;20367;-75
2023/06/13 20:12:01;;;;;;;9.68;3.47;;;;;;;21.59;54.01;101348.00;10378382;28;20069;-79
2023/06/13 20:17:02;;;;;;;2.63;2.42;;;;;;;21.43;55.24;101357.19;10369062;28;20060;-78
2023/06/13 20:22:03;;;;;;;3.35;3.05;;;;;;;21.38;54.56;101360.72;10379527;28;20037;-76
2023/06/13 20:27:03;;;;;;;3.70;3.13;;;;;;;21.26;54.64;101368.28;10379718;28;20074;-79
2023/06/13 20:32:04;;;;;;;3.60;2.95;;;;;;;21.16;55.41;101368.16;10378726;28;20046;-76
2023/06/13 20:37:05;;;;;;;5.45;3.35;;;;;;;21.08;57.15;101369.41;10377598;28;20038;-76
2023/06/13 20:42:10;;;;;;;3.55;3.03;;;;;;;20.99;56.04;101380.03;10378644;28;20030;-77
2023/06/13 20:47:11;;;;;;;7.53;3.65;;;;;;;20.88;58.46;101389.25;10376708;28;20038;-76
2023/06/13 20:52:12;;;;;;;2.85;2.63;;;;;;;20.75;61.30;101389.63;10376614;28;20033;-76
2023/06/13 20:57:12;;;;;;;8.55;3.55;;;;;;;20.79;55.98;101394.38;10377043;28;20042;-79
2023/06/13 21:02:13;;;;;;;3.80;3.42;;;;;;;20.62;59.92;101401.84;10377278;28;20449;-78
2023/06/13 21:07:13;;;;;;;3.13;2.80;;;;;;;20.57;59.45;101401.75;10375403;28;20038;-70
2023/06/13 21:12:13;;;;;;;7.88;3.08;;;;;;;20.46;62.44;101409.00;10373117;28;20061;-70
2023/06/13 21:17:14;;;;;;;2.40;2.22;;;;;;;20.43;60.10;101410.31;10374767;28;20065;-70
2023/06/13 21:22:15;;;;;;;2.80;2.60;;;;;;;20.39;60.62;101402.84;10372826;28;20115;-70
2023/06/13 21:27:15;;;;;;;4.03;2.88;;;;;;;20.29;63.01;101413.66;10374131;28;20065;-69
2023/06/13 21:32:16;;;;;;;10.90;3.72;;;;;;;20.29;59.93;101419.16;10374823;28;20049;-69
2023/06/13 21:37:17;;;;;;;3.28;2.97;;;;;;;20.19;57.44;101420.63;10373851;28;20429;-71
2023/06/13 21:42:17;;;;;;;3.67;3.30;;;;;;;20.06;60.42;101417.38;10373093;28;20034;-69
2023/06/13 21:47:18;;;;;;;5.00;3.33;;;;;;;20.03;57.44;101407.72;10372406;28;20121;-70
2023/06/13 21:52:18;;;;;;;3.53;2.83;;;;;;;19.94;59.28;101420.19;10373170;28;20432;-70
2023/06/13 21:57:19;;;;;;;3.40;2.40;;;;;;;19.86;57.36;101417.84;10373244;28;20038;-70
2023/06/13 22:02:19;;;;;;;2.65;2.45;;;;;;;19.77;60.01;101427.59;10370908;28;20065;-70
2023/06/13 22:07:19;;;;;;;3.28;2.88;;;;;;;19.76;58.45;101436.91;10374366;28;20084;-70
2023/06/13 22:12:26;;;;;;;7.68;2.75;;;;;;;19.68;57.51;101433.44;10372231;28;20078;-69
2023/06/13 22:17:29;;;;;;;3.03;2.78;;;;;;;19.60;58.52;101439.31;10371146;28;20037;-69
2023/06/13 22:22:30;;;;;;;5.30;2.72;;;;;;;19.54;61.80;101439.47;10372405;28;20041;-70
2023/06/13 22:27:30;;;;;;;3.88;2.42;;;;;;;19.50;61.61;101447.38;10370087;28;20125;-69
2023/06/13 22:32:31;;;;;;;4.40;3.33;;;;;;;19.39;61.26;101443.56;10369065;28;20088;-70
2023/06/13 22:37:33;;;;;;;13.27;3.42;;;;;;;19.44;61.59;101460.16;10386304;28;20078;-69
2023/06/13 22:42:34;;;;;;;13.32;3.28;;;;;;;19.36;59.42;101463.25;10371070;28;20037;-70
2023/06/13 22:47:36;;;;;;;3.42;3.08;;;;;;;19.23;67.66;101461.63;10370888;28;20110;-70
2023/06/13 22:52:39;;;;;;;4.63;2.88;;;;;;;19.24;64.73;101460.56;10370866;28;20026;-69
2023/06/13 22:57:41;;;;;;;5.55;2.55;;;;;;;19.19;63.62;101465.09;10370734;28;20057;-69
2023/06/13 23:02:41;;;;;;;3.00;2.63;;;;;;;19.10;64.42;101469.28;10369015;28;20445;-69